Cebu City, Philippines
Current Conditions -  °F | °C
As of 2:00 AM on Wednesday 22 Oct 2014 (Local Time) from RPVM Reporting Station
Broken Clouds Broken Clouds  
Wind Chill: 81°   Ceiling: 30000
Heat Index: 87°   Visibility: 6mi
Dew Point: 77°   Wind: 2mph
Humidity: 89%   Direction: NA
Pressure: 29.88"   Gusts: NA
Location:  10.3°N, 123.9°E
Report Text: RPVM 211800Z VRB02KT 9999 FEW018CB BKN300 27/25 Q1012 RMK A2988 OCCNL DSTNT LGTNG NW AND SW
Loading
Personal Weather Stations






























Interactive Weather Map New forecast layout! Learn more

10-Day Weather Forecast

Advertisements
Track Severe Weather on mobile